Hayward, California
Current Conditions -  °F | °C
As of 3:54 PM on Tuesday 25 Nov 2014 (Local Time) from KHWD Reporting Station
Clear Clear  
Wind Chill: 62°   Ceiling: Unl
Heat Index: 62°   Visibility: 10mi
Dew Point: 44°   Wind: 9mph
Humidity: 52%   Direction: 30°NNE
Pressure: 30.36"   Gusts: NA
Location:  37.67°N, 122.08°W
Report Text: KHWD 252354Z 03008KT 10SM CLR 17/07 A3036 RMK AO2 SLP289 T01670067 10178 20111 56012
Loading
Personal Weather Stations






























Interactive Weather Map New forecast layout! Learn more

10-Day Weather Forecast

Advertisements
Track Severe Weather on mobile